sensor_id;sensor_type;location;lat;lon;timestamp;P1;durP1;ratioP1;P2;durP2;ratioP2
51985;SDS011;38002;53.296;6.600;2022-07-12T00:01:56;2.10;;;1.90;;
51985;SDS011;38002;53.296;6.600;2022-07-12T00:06:56;1.95;;;1.85;;
51985;SDS011;38002;53.296;6.600;2022-07-12T00:11:57;1.67;;;1.58;;
51985;SDS011;38002;53.296;6.600;2022-07-12T00:16:58;2.03;;;1.70;;
51985;SDS011;38002;53.296;6.600;2022-07-12T00:21:58;1.60;;;1.48;;
51985;SDS011;38002;53.296;6.600;2022-07-12T00:26:59;1.90;;;1.65;;
51985;SDS011;38002;53.296;6.600;2022-07-12T00:31:59;1.58;;;1.48;;
51985;SDS011;38002;53.296;6.600;2022-07-12T00:37:00;1.70;;;1.60;;
51985;SDS011;38002;53.296;6.600;2022-07-12T00:42:00;2.17;;;1.45;;
51985;SDS011;38002;53.296;6.600;2022-07-12T00:47:01;1.70;;;1.60;;
51985;SDS011;38002;53.296;6.600;2022-07-12T00:52:02;2.33;;;2.08;;
51985;SDS011;38002;53.296;6.600;2022-07-12T00:57:02;2.80;;;2.60;;
51985;SDS011;38002;53.296;6.600;2022-07-12T01:02:03;2.92;;;2.72;;
51985;SDS011;38002;53.296;6.600;2022-07-12T01:07:04;4.32;;;2.97;;
51985;SDS011;38002;53.296;6.600;2022-07-12T01:12:04;2.70;;;2.50;;
51985;SDS011;38002;53.296;6.600;2022-07-12T01:17:06;3.03;;;2.83;;
51985;SDS011;38002;53.296;6.600;2022-07-12T01:22:08;3.30;;;3.00;;
51985;SDS011;38002;53.296;6.600;2022-07-12T01:27:10;4.43;;;4.03;;
51985;SDS011;38002;53.296;6.600;2022-07-12T01:32:11;6.53;;;3.88;;
51985;SDS011;38002;53.296;6.600;2022-07-12T01:37:29;5.00;;;4.50;;
51985;SDS011;38002;53.296;6.600;2022-07-12T01:42:37;5.07;;;4.38;;
51985;SDS011;38002;53.296;6.600;2022-07-12T01:47:38;4.18;;;3.85;;
51985;SDS011;38002;53.296;6.600;2022-07-12T01:52:40;5.20;;;4.67;;
51985;SDS011;38002;53.296;6.600;2022-07-12T01:57:41;5.07;;;4.57;;
51985;SDS011;38002;53.296;6.600;2022-07-12T02:02:44;4.60;;;4.20;;
51985;SDS011;38002;53.296;6.600;2022-07-12T02:07:46;5.93;;;5.32;;
51985;SDS011;38002;53.296;6.600;2022-07-12T02:17:48;4.13;;;3.72;;
51985;SDS011;38002;53.296;6.600;2022-07-12T02:22:48;4.45;;;4.05;;
51985;SDS011;38002;53.296;6.600;2022-07-12T02:27:49;4.25;;;3.85;;
51985;SDS011;38002;53.296;6.600;2022-07-12T02:32:49;4.68;;;4.28;;
51985;SDS011;38002;53.296;6.600;2022-07-12T02:37:50;4.60;;;4.15;;
51985;SDS011;38002;53.296;6.600;2022-07-12T02:42:50;4.60;;;3.97;;
51985;SDS011;38002;53.296;6.600;2022-07-12T02:47:51;4.93;;;4.10;;
51985;SDS011;38002;53.296;6.600;2022-07-12T02:52:51;5.75;;;4.10;;
51985;SDS011;38002;53.296;6.600;2022-07-12T02:57:51;5.93;;;3.95;;
51985;SDS011;38002;53.296;6.600;2022-07-12T03:02:52;5.20;;;4.22;;
51985;SDS011;38002;53.296;6.600;2022-07-12T03:07:52;4.55;;;4.13;;
51985;SDS011;38002;53.296;6.600;2022-07-12T03:12:53;5.10;;;4.63;;
51985;SDS011;38002;53.296;6.600;2022-07-12T03:17:54;4.45;;;4.05;;
51985;SDS011;38002;53.296;6.600;2022-07-12T03:22:54;4.03;;;3.72;;
51985;SDS011;38002;53.296;6.600;2022-07-12T03:27:55;3.92;;;3.53;;
51985;SDS011;38002;53.296;6.600;2022-07-12T03:32:55;4.53;;;4.10;;
51985;SDS011;38002;53.296;6.600;2022-07-12T03:37:56;4.07;;;3.67;;
51985;SDS011;38002;53.296;6.600;2022-07-12T03:42:56;5.22;;;4.72;;
51985;SDS011;38002;53.296;6.600;2022-07-12T03:52:59;8.80;;;5.07;;
51985;SDS011;38002;53.296;6.600;2022-07-12T03:57:59;10.98;;;5.10;;
51985;SDS011;38002;53.296;6.600;2022-07-12T04:03:00;6.00;;;5.40;;
51985;SDS011;38002;53.296;6.600;2022-07-12T04:08:00;6.63;;;5.40;;
51985;SDS011;38002;53.296;6.600;2022-07-12T04:13:02;6.13;;;5.53;;
51985;SDS011;38002;53.296;6.600;2022-07-12T04:18:02;6.78;;;5.78;;
51985;SDS011;38002;53.296;6.600;2022-07-12T04:23:04;8.07;;;4.95;;
51985;SDS011;38002;53.296;6.600;2022-07-12T04:28:05;6.47;;;5.38;;
51985;SDS011;38002;53.296;6.600;2022-07-12T04:33:05;6.32;;;5.43;;
51985;SDS011;38002;53.296;6.600;2022-07-12T04:38:07;7.60;;;5.60;;
51985;SDS011;38002;53.296;6.600;2022-07-12T04:43:07;10.07;;;5.97;;
51985;SDS011;38002;53.296;6.600;2022-07-12T04:48:08;7.07;;;6.18;;
51985;SDS011;38002;53.296;6.600;2022-07-12T04:53:08;6.18;;;5.57;;
51985;SDS011;38002;53.296;6.600;2022-07-12T04:58:10;8.45;;;6.43;;
51985;SDS011;38002;53.296;6.600;2022-07-12T05:03:10;5.50;;;5.00;;
51985;SDS011;38002;53.296;6.600;2022-07-12T05:08:11;9.48;;;6.38;;
51985;SDS011;38002;53.296;6.600;2022-07-12T05:13:11;7.72;;;6.88;;
51985;SDS011;38002;53.296;6.600;2022-07-12T05:18:11;7.68;;;6.55;;
51985;SDS011;38002;53.296;6.600;2022-07-12T05:23:13;7.47;;;6.13;;
51985;SDS011;38002;53.296;6.600;2022-07-12T05:28:13;10.60;;;6.50;;
51985;SDS011;38002;53.296;6.600;2022-07-12T05:38:15;7.93;;;6.28;;
51985;SDS011;38002;53.296;6.600;2022-07-12T05:43:16;9.13;;;7.25;;
51985;SDS011;38002;53.296;6.600;2022-07-12T05:48:16;8.45;;;6.60;;
51985;SDS011;38002;53.296;6.600;2022-07-12T05:53:17;18.98;;;7.22;;
51985;SDS011;38002;53.296;6.600;2022-07-12T05:58:23;8.52;;;6.43;;
51985;SDS011;38002;53.296;6.600;2022-07-12T06:03:23;8.50;;;6.13;;
51985;SDS011;38002;53.296;6.600;2022-07-12T06:08:24;11.82;;;7.10;;
51985;SDS011;38002;53.296;6.600;2022-07-12T06:13:24;8.52;;;5.72;;
51985;SDS011;38002;53.296;6.600;2022-07-12T06:18:25;10.25;;;6.47;;
51985;SDS011;38002;53.296;6.600;2022-07-12T06:23:26;10.00;;;6.47;;
51985;SDS011;38002;53.296;6.600;2022-07-12T06:28:26;8.15;;;5.80;;
51985;SDS011;38002;53.296;6.600;2022-07-12T06:33:27;10.20;;;5.75;;
51985;SDS011;38002;53.296;6.600;2022-07-12T06:38:27;7.95;;;5.07;;
51985;SDS011;38002;53.296;6.600;2022-07-12T06:43:27;7.88;;;5.40;;
51985;SDS011;38002;53.296;6.600;2022-07-12T06:48:28;6.70;;;5.73;;
51985;SDS011;38002;53.296;6.600;2022-07-12T06:53:28;7.20;;;5.67;;
51985;SDS011;38002;53.296;6.600;2022-07-12T06:58:29;5.22;;;4.60;;
51985;SDS011;38002;53.296;6.600;2022-07-12T07:03:29;6.10;;;4.43;;
51985;SDS011;38002;53.296;6.600;2022-07-12T07:08:30;6.67;;;5.67;;
51985;SDS011;38002;53.296;6.600;2022-07-12T07:13:31;7.95;;;4.90;;
51985;SDS011;38002;53.296;6.600;2022-07-12T07:18:32;5.47;;;4.13;;
51985;SDS011;38002;53.296;6.600;2022-07-12T07:23:33;4.73;;;4.33;;
51985;SDS011;38002;53.296;6.600;2022-07-12T07:28:33;6.97;;;4.23;;
51985;SDS011;38002;53.296;6.600;2022-07-12T07:33:54;4.68;;;4.28;;
51985;SDS011;38002;53.296;6.600;2022-07-12T07:38:54;4.90;;;4.40;;
51985;SDS011;38002;53.296;6.600;2022-07-12T07:43:55;4.73;;;4.30;;
51985;SDS011;38002;53.296;6.600;2022-07-12T07:48:55;4.63;;;4.23;;
51985;SDS011;38002;53.296;6.600;2022-07-12T07:53:55;7.63;;;3.43;;
51985;SDS011;38002;53.296;6.600;2022-07-12T07:58:56;7.90;;;3.30;;
51985;SDS011;38002;53.296;6.600;2022-07-12T08:03:56;3.10;;;2.90;;
51985;SDS011;38002;53.296;6.600;2022-07-12T08:08:57;4.10;;;2.80;;
51985;SDS011;38002;53.296;6.600;2022-07-12T08:13:57;3.17;;;2.53;;
51985;SDS011;38002;53.296;6.600;2022-07-12T08:18:58;2.90;;;2.70;;
51985;SDS011;38002;53.296;6.600;2022-07-12T08:23:58;2.73;;;2.53;;
51985;SDS011;38002;53.296;6.600;2022-07-12T08:28:59;2.40;;;2.20;;
51985;SDS011;38002;53.296;6.600;2022-07-12T08:33:59;2.67;;;2.47;;
51985;SDS011;38002;53.296;6.600;2022-07-12T08:39:00;2.83;;;1.93;;
51985;SDS011;38002;53.296;6.600;2022-07-12T08:44:00;1.70;;;1.60;;
51985;SDS011;38002;53.296;6.600;2022-07-12T08:49:04;2.70;;;1.70;;
51985;SDS011;38002;53.296;6.600;2022-07-12T08:54:07;2.10;;;1.90;;
51985;SDS011;38002;53.296;6.600;2022-07-12T08:59:16;2.55;;;1.77;;
51985;SDS011;38002;53.296;6.600;2022-07-12T09:04:19;2.08;;;1.85;;
51985;SDS011;38002;53.296;6.600;2022-07-12T09:09:27;2.33;;;2.22;;
51985;SDS011;38002;53.296;6.600;2022-07-12T09:14:29;2.60;;;2.05;;
51985;SDS011;38002;53.296;6.600;2022-07-12T09:19:31;2.00;;;1.90;;
51985;SDS011;38002;53.296;6.600;2022-07-12T09:24:32;1.97;;;1.80;;
51985;SDS011;38002;53.296;6.600;2022-07-12T09:29:32;1.97;;;1.80;;
51985;SDS011;38002;53.296;6.600;2022-07-12T09:34:55;1.70;;;1.60;;
51985;SDS011;38002;53.296;6.600;2022-07-12T09:40:14;1.85;;;1.75;;
51985;SDS011;38002;53.296;6.600;2022-07-12T09:45:15;2.50;;;2.40;;
51985;SDS011;38002;53.296;6.600;2022-07-12T09:50:17;2.40;;;2.30;;
51985;SDS011;38002;53.296;6.600;2022-07-12T09:55:17;4.00;;;2.30;;
51985;SDS011;38002;53.296;6.600;2022-07-12T10:00:23;1.88;;;1.77;;
51985;SDS011;38002;53.296;6.600;2022-07-12T10:05:24;2.58;;;2.45;;
51985;SDS011;38002;53.296;6.600;2022-07-12T10:10:26;2.65;;;2.13;;
51985;SDS011;38002;53.296;6.600;2022-07-12T10:15:28;2.85;;;1.83;;
51985;SDS011;38002;53.296;6.600;2022-07-12T10:20:31;2.83;;;1.20;;
51985;SDS011;38002;53.296;6.600;2022-07-12T10:25:32;5.40;;;1.40;;
51985;SDS011;38002;53.296;6.600;2022-07-12T10:35:57;2.15;;;1.13;;
51985;SDS011;38002;53.296;6.600;2022-07-12T10:40:58;1.55;;;1.45;;
51985;SDS011;38002;53.296;6.600;2022-07-12T10:46:20;2.05;;;1.45;;
51985;SDS011;38002;53.296;6.600;2022-07-12T10:51:23;3.67;;;1.08;;
51985;SDS011;38002;53.296;6.600;2022-07-12T10:56:24;1.43;;;1.30;;
51985;SDS011;38002;53.296;6.600;2022-07-12T11:01:27;2.00;;;1.25;;
51985;SDS011;38002;53.296;6.600;2022-07-12T11:06:29;0.77;;;0.77;;
51985;SDS011;38002;53.296;6.600;2022-07-12T11:11:48;0.90;;;0.90;;
51985;SDS011;38002;53.296;6.600;2022-07-12T11:16:50;0.70;;;0.70;;
51985;SDS011;38002;53.296;6.600;2022-07-12T11:21:54;2.22;;;0.95;;
51985;SDS011;38002;53.296;6.600;2022-07-12T11:26:57;1.23;;;0.70;;
51985;SDS011;38002;53.296;6.600;2022-07-12T11:32:03;1.17;;;1.08;;
51985;SDS011;38002;53.296;6.600;2022-07-12T11:37:05;1.55;;;0.77;;
51985;SDS011;38002;53.296;6.600;2022-07-12T11:42:07;2.33;;;0.95;;
51985;SDS011;38002;53.296;6.600;2022-07-12T11:47:08;0.80;;;0.80;;
51985;SDS011;38002;53.296;6.600;2022-07-12T11:52:11;3.55;;;1.02;;
51985;SDS011;38002;53.296;6.600;2022-07-12T11:57:13;0.80;;;0.80;;
51985;SDS011;38002;53.296;6.600;2022-07-12T12:07:19;0.60;;;0.60;;
51985;SDS011;38002;53.296;6.600;2022-07-12T12:12:20;1.42;;;0.90;;
51985;SDS011;38002;53.296;6.600;2022-07-12T12:22:28;0.80;;;0.80;;
51985;SDS011;38002;53.296;6.600;2022-07-12T12:27:39;0.85;;;0.85;;
51985;SDS011;38002;53.296;6.600;2022-07-12T12:32:59;3.53;;;1.05;;
51985;SDS011;38002;53.296;6.600;2022-07-12T12:38:01;1.60;;;1.00;;
51985;SDS011;38002;53.296;6.600;2022-07-12T12:43:07;1.40;;;0.85;;
51985;SDS011;38002;53.296;6.600;2022-07-12T12:48:09;4.57;;;1.20;;
51985;SDS011;38002;53.296;6.600;2022-07-12T12:53:19;0.80;;;0.80;;
51985;SDS011;38002;53.296;6.600;2022-07-12T12:58:20;3.05;;;1.33;;
51985;SDS011;38002;53.296;6.600;2022-07-12T13:03:22;2.05;;;1.15;;
51985;SDS011;38002;53.296;6.600;2022-07-12T13:08:25;1.10;;;1.00;;
51985;SDS011;38002;53.296;6.600;2022-07-12T13:13:27;1.52;;;1.25;;
51985;SDS011;38002;53.296;6.600;2022-07-12T13:18:28;2.50;;;1.50;;
51985;SDS011;38002;53.296;6.600;2022-07-12T13:23:28;3.53;;;1.80;;
51985;SDS011;38002;53.296;6.600;2022-07-12T13:28:28;2.00;;;1.60;;
51985;SDS011;38002;53.296;6.600;2022-07-12T13:33:29;3.92;;;2.15;;
51985;SDS011;38002;53.296;6.600;2022-07-12T13:38:30;1.75;;;1.65;;
51985;SDS011;38002;53.296;6.600;2022-07-12T13:43:30;2.33;;;1.63;;
51985;SDS011;38002;53.296;6.600;2022-07-12T13:48:31;2.70;;;1.25;;
51985;SDS011;38002;53.296;6.600;2022-07-12T13:53:31;1.23;;;1.00;;
51985;SDS011;38002;53.296;6.600;2022-07-12T13:58:32;1.00;;;1.00;;
51985;SDS011;38002;53.296;6.600;2022-07-12T14:03:32;2.47;;;0.97;;
51985;SDS011;38002;53.296;6.600;2022-07-12T14:13:33;5.63;;;1.30;;
51985;SDS011;38002;53.296;6.600;2022-07-12T14:23:35;1.43;;;1.13;;
51985;SDS011;38002;53.296;6.600;2022-07-12T14:28:36;1.30;;;1.30;;
51985;SDS011;38002;53.296;6.600;2022-07-12T14:38:37;1.20;;;1.10;;
51985;SDS011;38002;53.296;6.600;2022-07-12T14:48:38;1.90;;;1.20;;
51985;SDS011;38002;53.296;6.600;2022-07-12T14:58:39;1.30;;;1.20;;
51985;SDS011;38002;53.296;6.600;2022-07-12T15:08:40;4.78;;;0.82;;
51985;SDS011;38002;53.296;6.600;2022-07-12T15:13:40;1.05;;;0.90;;
51985;SDS011;38002;53.296;6.600;2022-07-12T15:18:41;2.75;;;1.15;;
51985;SDS011;38002;53.296;6.600;2022-07-12T15:28:52;1.52;;;0.60;;
51985;SDS011;38002;53.296;6.600;2022-07-12T15:39:04;3.33;;;0.70;;
51985;SDS011;38002;53.296;6.600;2022-07-12T15:44:05;0.50;;;0.50;;
51985;SDS011;38002;53.296;6.600;2022-07-12T15:49:06;0.88;;;0.70;;
51985;SDS011;38002;53.296;6.600;2022-07-12T15:54:08;0.73;;;0.70;;
51985;SDS011;38002;53.296;6.600;2022-07-12T15:59:09;0.87;;;0.70;;
51985;SDS011;38002;53.296;6.600;2022-07-12T16:04:09;0.68;;;0.68;;
51985;SDS011;38002;53.296;6.600;2022-07-12T16:09:10;1.00;;;0.93;;
51985;SDS011;38002;53.296;6.600;2022-07-12T16:14:11;1.00;;;0.88;;
51985;SDS011;38002;53.296;6.600;2022-07-12T16:19:11;0.88;;;0.68;;
51985;SDS011;38002;53.296;6.600;2022-07-12T16:24:12;1.13;;;1.13;;
51985;SDS011;38002;53.296;6.600;2022-07-12T16:29:12;2.00;;;1.17;;
51985;SDS011;38002;53.296;6.600;2022-07-12T16:34:13;2.23;;;1.40;;
51985;SDS011;38002;53.296;6.600;2022-07-12T16:39:15;5.75;;;2.03;;
51985;SDS011;38002;53.296;6.600;2022-07-12T16:44:16;2.97;;;2.40;;
51985;SDS011;38002;53.296;6.600;2022-07-12T16:49:16;2.53;;;2.33;;
51985;SDS011;38002;53.296;6.600;2022-07-12T16:54:17;2.90;;;2.30;;
51985;SDS011;38002;53.296;6.600;2022-07-12T16:59:17;5.88;;;4.50;;
51985;SDS011;38002;53.296;6.600;2022-07-12T17:04:19;4.43;;;3.08;;
51985;SDS011;38002;53.296;6.600;2022-07-12T17:09:19;6.17;;;3.40;;
51985;SDS011;38002;53.296;6.600;2022-07-12T17:14:20;4.73;;;4.33;;
51985;SDS011;38002;53.296;6.600;2022-07-12T17:19:20;4.20;;;3.90;;
51985;SDS011;38002;53.296;6.600;2022-07-12T17:24:21;5.63;;;4.05;;
51985;SDS011;38002;53.296;6.600;2022-07-12T17:29:21;4.50;;;4.10;;
51985;SDS011;38002;53.296;6.600;2022-07-12T17:34:22;2.53;;;2.33;;
51985;SDS011;38002;53.296;6.600;2022-07-12T17:39:23;4.03;;;3.67;;
51985;SDS011;38002;53.296;6.600;2022-07-12T17:44:23;4.57;;;4.13;;
51985;SDS011;38002;53.296;6.600;2022-07-12T17:49:24;5.20;;;4.68;;
51985;SDS011;38002;53.296;6.600;2022-07-12T17:54:25;5.47;;;4.03;;
51985;SDS011;38002;53.296;6.600;2022-07-12T17:59:25;5.20;;;4.80;;
51985;SDS011;38002;53.296;6.600;2022-07-12T18:04:26;6.23;;;5.57;;
51985;SDS011;38002;53.296;6.600;2022-07-12T18:09:26;7.70;;;4.63;;
51985;SDS011;38002;53.296;6.600;2022-07-12T18:14:27;7.07;;;5.13;;
51985;SDS011;38002;53.296;6.600;2022-07-12T18:19:42;5.15;;;4.50;;
51985;SDS011;38002;53.296;6.600;2022-07-12T18:24:43;4.67;;;4.10;;
51985;SDS011;38002;53.296;6.600;2022-07-12T18:29:43;6.17;;;3.70;;
51985;SDS011;38002;53.296;6.600;2022-07-12T18:34:44;4.18;;;3.78;;
51985;SDS011;38002;53.296;6.600;2022-07-12T18:39:45;5.00;;;4.60;;
51985;SDS011;38002;53.296;6.600;2022-07-12T18:44:45;5.43;;;4.93;;
51985;SDS011;38002;53.296;6.600;2022-07-12T18:49:46;6.90;;;4.20;;
51985;SDS011;38002;53.296;6.600;2022-07-12T18:54:46;5.13;;;3.87;;
51985;SDS011;38002;53.296;6.600;2022-07-12T18:59:47;3.97;;;3.67;;
51985;SDS011;38002;53.296;6.600;2022-07-12T19:04:48;4.37;;;3.90;;
51985;SDS011;38002;53.296;6.600;2022-07-12T19:09:48;3.50;;;3.20;;
51985;SDS011;38002;53.296;6.600;2022-07-12T19:14:49;5.10;;;2.97;;
51985;SDS011;38002;53.296;6.600;2022-07-12T19:19:49;5.27;;;4.23;;
51985;SDS011;38002;53.296;6.600;2022-07-12T19:24:50;4.72;;;3.95;;
51985;SDS011;38002;53.296;6.600;2022-07-12T19:29:51;4.17;;;3.77;;
51985;SDS011;38002;53.296;6.600;2022-07-12T19:34:51;4.87;;;4.37;;
51985;SDS011;38002;53.296;6.600;2022-07-12T19:39:52;4.50;;;3.53;;
51985;SDS011;38002;53.296;6.600;2022-07-12T19:44:53;3.63;;;3.33;;
51985;SDS011;38002;53.296;6.600;2022-07-12T19:49:53;3.40;;;3.10;;
51985;SDS011;38002;53.296;6.600;2022-07-12T19:54:54;3.87;;;3.57;;
51985;SDS011;38002;53.296;6.600;2022-07-12T19:59:54;5.07;;;3.80;;
51985;SDS011;38002;53.296;6.600;2022-07-12T20:04:55;6.07;;;4.60;;
51985;SDS011;38002;53.296;6.600;2022-07-12T20:09:55;4.93;;;4.50;;
51985;SDS011;38002;53.296;6.600;2022-07-12T20:14:56;7.50;;;4.83;;
51985;SDS011;38002;53.296;6.600;2022-07-12T20:19:56;5.13;;;4.63;;
51985;SDS011;38002;53.296;6.600;2022-07-12T20:24:57;7.30;;;6.10;;
51985;SDS011;38002;53.296;6.600;2022-07-12T20:29:58;6.93;;;5.07;;
51985;SDS011;38002;53.296;6.600;2022-07-12T20:34:59;7.65;;;4.90;;
51985;SDS011;38002;53.296;6.600;2022-07-12T20:39:59;7.33;;;6.10;;
51985;SDS011;38002;53.296;6.600;2022-07-12T20:45:00;4.90;;;4.47;;
51985;SDS011;38002;53.296;6.600;2022-07-12T20:50:00;5.17;;;4.77;;
51985;SDS011;38002;53.296;6.600;2022-07-12T20:55:01;8.23;;;5.30;;
51985;SDS011;38002;53.296;6.600;2022-07-12T21:00:04;6.30;;;5.65;;
51985;SDS011;38002;53.296;6.600;2022-07-12T21:05:07;6.07;;;5.40;;
51985;SDS011;38002;53.296;6.600;2022-07-12T21:10:08;6.93;;;6.32;;
51985;SDS011;38002;53.296;6.600;2022-07-12T21:15:08;6.27;;;5.67;;
51985;SDS011;38002;53.296;6.600;2022-07-12T21:20:09;7.27;;;6.20;;
51985;SDS011;38002;53.296;6.600;2022-07-12T21:25:10;7.82;;;7.13;;
51985;SDS011;38002;53.296;6.600;2022-07-12T21:30:11;6.03;;;5.50;;
51985;SDS011;38002;53.296;6.600;2022-07-12T21:35:11;5.00;;;4.60;;
51985;SDS011;38002;53.296;6.600;2022-07-12T21:40:12;4.40;;;3.63;;
51985;SDS011;38002;53.296;6.600;2022-07-12T21:45:12;7.90;;;4.23;;
51985;SDS011;38002;53.296;6.600;2022-07-12T21:50:13;4.83;;;4.43;;
51985;SDS011;38002;53.296;6.600;2022-07-12T21:55:14;4.35;;;3.92;;
51985;SDS011;38002;53.296;6.600;2022-07-12T22:00:18;5.33;;;4.20;;
51985;SDS011;38002;53.296;6.600;2022-07-12T22:05:20;5.10;;;4.60;;
51985;SDS011;38002;53.296;6.600;2022-07-12T22:15:22;4.90;;;4.53;;
51985;SDS011;38002;53.296;6.600;2022-07-12T22:20:23;4.47;;;3.80;;
51985;SDS011;38002;53.296;6.600;2022-07-12T22:25:24;3.70;;;3.30;;
51985;SDS011;38002;53.296;6.600;2022-07-12T22:30:24;4.30;;;3.60;;
51985;SDS011;38002;53.296;6.600;2022-07-12T22:35:25;4.03;;;3.10;;
51985;SDS011;38002;53.296;6.600;2022-07-12T22:40:25;3.63;;;2.77;;
51985;SDS011;38002;53.296;6.600;2022-07-12T22:45:26;4.37;;;3.07;;
51985;SDS011;38002;53.296;6.600;2022-07-12T22:50:26;2.67;;;2.47;;
51985;SDS011;38002;53.296;6.600;2022-07-12T22:55:45;3.50;;;3.08;;
51985;SDS011;38002;53.296;6.600;2022-07-12T23:00:45;4.77;;;3.27;;
51985;SDS011;38002;53.296;6.600;2022-07-12T23:05:46;3.87;;;3.53;;
51985;SDS011;38002;53.296;6.600;2022-07-12T23:10:46;3.60;;;3.30;;
51985;SDS011;38002;53.296;6.600;2022-07-12T23:15:47;4.90;;;2.80;;
51985;SDS011;38002;53.296;6.600;2022-07-12T23:20:48;3.90;;;2.85;;
51985;SDS011;38002;53.296;6.600;2022-07-12T23:25:49;3.73;;;2.60;;
51985;SDS011;38002;53.296;6.600;2022-07-12T23:30:49;2.73;;;2.53;;
51985;SDS011;38002;53.296;6.600;2022-07-12T23:35:50;2.50;;;2.30;;
51985;SDS011;38002;53.296;6.600;2022-07-12T23:40:50;4.47;;;3.13;;
51985;SDS011;38002;53.296;6.600;2022-07-12T23:45:52;3.40;;;3.20;;
51985;SDS011;38002;53.296;6.600;2022-07-12T23:50:52;4.47;;;3.00;;
51985;SDS011;38002;53.296;6.600;2022-07-12T23:55:52;3.30;;;3.00;;
